Time;durP1;ratioP1;P1;durP2;ratioP2;P2;SDS_P1;SDS_P2;PMS_P1;PMS_P2;Temp;Humidity;BMP_temperature;BMP_pressure;BME280_temperature;BME280_humidity;BME280_pressure;Samples;Min_cycle;Max_cycle;Signal;HPM_P1;HPM_P2
2023/12/20 00:01:12;;;;;;;14.27;3.13;;;;;;;6.10;100.00;101379.72;5028583;28;20061;-51
2023/12/20 00:03:39;;;;;;;19.88;4.55;;;;;;;6.11;100.00;101391.53;5028191;28;20499;-49
2023/12/20 00:06:10;;;;;;;12.73;2.70;;;;;;;6.11;100.00;101392.34;5017325;28;20041;-52
2023/12/20 00:08:37;;;;;;;23.90;4.07;;;;;;;6.11;100.00;101369.53;5021822;28;20407;-51
2023/12/20 00:11:04;;;;;;;15.70;3.90;;;;;;;6.10;100.00;101379.72;5029764;28;20511;-47
2023/12/20 00:13:32;;;;;;;12.35;3.03;;;;;;;6.09;100.00;101383.56;5011424;28;20042;-52
2023/12/20 00:15:59;;;;;;;11.80;2.53;;;;;;;6.09;100.00;101389.06;5028505;28;20048;-54
2023/12/20 00:18:27;;;;;;;14.52;2.83;;;;;;;6.11;100.00;101375.03;5028659;28;20053;-53
2023/12/20 00:20:55;;;;;;;11.63;3.85;;;;;;;6.13;100.00;101381.06;5010931;28;20059;-48
2023/12/20 00:23:23;;;;;;;13.75;2.60;;;;;;;6.16;100.00;101383.22;5027977;28;20052;-49
2023/12/20 00:25:51;;;;;;;16.75;2.72;;;;;;;6.15;100.00;101387.06;5034334;28;20519;-49
2023/12/20 00:28:20;;;;;;;23.05;5.15;;;;;;;6.17;100.00;101379.31;5011161;28;20045;-51
2023/12/20 00:30:47;;;;;;;11.77;3.58;;;;;;;6.20;100.00;101377.91;5017230;28;20077;-52
2023/12/20 00:33:15;;;;;;;15.55;3.97;;;;;;;6.21;100.00;101390.53;5027188;28;20049;-50
2023/12/20 00:35:43;;;;;;;15.32;2.60;;;;;;;6.21;100.00;101390.53;5027907;28;20052;-48
2023/12/20 00:38:11;;;;;;;11.77;3.35;;;;;;;6.20;100.00;101399.91;5028022;28;20503;-47
2023/12/20 00:40:38;;;;;;;16.15;3.20;;;;;;;6.20;100.00;101411.72;5009825;28;20057;-50
2023/12/20 00:43:05;;;;;;;9.73;2.95;;;;;;;6.20;100.00;101400.72;5027624;28;20053;-51
2023/12/20 00:45:33;;;;;;;17.25;3.17;;;;;;;6.21;100.00;101407.88;5026181;28;20044;-52
2023/12/20 00:48:00;;;;;;;13.68;2.95;;;;;;;6.22;100.00;101406.75;5027583;28;20042;-51
2023/12/20 00:50:28;;;;;;;20.25;4.07;;;;;;;6.23;100.00;101416.63;5027077;28;20053;-52
2023/12/20 00:53:00;;;;;;;14.85;3.05;;;;;;;6.26;100.00;101413.28;5027974;28;20487;-48
2023/12/20 00:55:27;;;;;;;11.90;2.38;;;;;;;6.27;100.00;101403.09;5027044;28;20045;-49
2023/12/20 00:57:54;;;;;;;20.02;2.58;;;;;;;6.26;100.00;101391.28;5027466;28;20049;-53
2023/12/20 01:00:22;;;;;;;11.95;2.60;;;;;;;6.28;100.00;101380.78;5027408;28;20049;-51
2023/12/20 01:02:51;;;;;;;12.52;2.40;;;;;;;6.28;100.00;101391.78;5026853;28;20077;-51
2023/12/20 01:05:19;;;;;;;16.08;2.53;;;;;;;6.30;100.00;101389.53;5027396;28;20056;-50
2023/12/20 01:07:46;;;;;;;14.00;2.72;;;;;;;6.33;100.00;101388.94;5019565;28;20038;-47
2023/12/20 01:10:15;;;;;;;21.33;4.95;;;;;;;6.35;100.00;101375.72;5026674;28;20061;-51
2023/12/20 01:12:44;;;;;;;10.25;2.08;;;;;;;6.37;100.00;101373.50;5009467;28;20530;-49
2023/12/20 01:15:11;;;;;;;13.15;4.78;;;;;;;6.36;100.00;101371.03;5027313;28;20045;-49
2023/12/20 01:17:38;;;;;;;18.27;3.30;;;;;;;6.35;100.00;101363.91;5026648;28;20440;-50
2023/12/20 01:20:06;;;;;;;14.20;3.10;;;;;;;6.37;100.00;101367.16;5026963;28;20048;-49
2023/12/20 01:22:35;;;;;;;17.92;2.70;;;;;;;6.36;100.00;101369.09;5025711;28;20045;-47
2023/12/20 01:25:03;;;;;;;13.82;2.80;;;;;;;6.37;100.00;101356.16;5031052;28;20435;-51
2023/12/20 01:27:31;;;;;;;15.95;3.17;;;;;;;6.38;100.00;101363.31;5026726;28;20053;-53
2023/12/20 01:29:58;;;;;;;18.80;2.90;;;;;;;6.39;100.00;101371.25;5027597;28;20402;-47
2023/12/20 01:32:25;;;;;;;12.98;2.85;;;;;;;6.41;100.00;101369.00;5025721;28;20060;-52
2023/12/20 01:34:53;;;;;;;16.92;2.58;;;;;;;6.41;100.00;101371.75;5009390;28;20052;-50
2023/12/20 01:37:23;;;;;;;15.27;2.42;;;;;;;6.44;100.00;101365.66;5026427;28;20057;-47
2023/12/20 01:39:51;;;;;;;10.07;2.53;;;;;;;6.51;100.00;101366.06;5027055;28;20050;-50
2023/12/20 01:42:19;;;;;;;11.68;2.63;;;;;;;6.58;100.00;101363.75;5025617;28;20057;-48
2023/12/20 01:44:47;;;;;;;10.93;2.38;;;;;;;6.64;100.00;101358.97;5027300;28;20061;-50
2023/12/20 01:47:15;;;;;;;17.77;3.90;;;;;;;6.64;100.00;101359.78;5008774;28;20052;-50
2023/12/20 01:49:43;;;;;;;13.25;2.20;;;;;;;6.66;100.00;101348.47;5023276;28;20060;-51
2023/12/20 01:52:11;;;;;;;8.20;2.40;;;;;;;6.70;100.00;101366.00;5007377;28;20586;-49
2023/12/20 01:54:41;;;;;;;18.25;6.03;;;;;;;6.73;100.00;101371.72;5026010;28;20141;-48
2023/12/20 01:57:10;;;;;;;15.90;2.88;;;;;;;6.76;100.00;101381.28;5026931;28;20046;-51
2023/12/20 01:59:39;;;;;;;9.75;2.20;;;;;;;6.80;100.00;101356.75;5026718;28;21327;-50
2023/12/20 02:02:07;;;;;;;10.43;3.10;;;;;;;6.83;100.00;101365.19;5028958;28;20049;-52
2023/12/20 02:04:35;;;;;;;11.02;2.05;;;;;;;6.87;100.00;101371.72;5030320;28;20057;-50
2023/12/20 02:07:03;;;;;;;7.35;2.83;;;;;;;6.92;100.00;101363.38;5030746;28;20052;-52
2023/12/20 02:09:31;;;;;;;13.57;3.15;;;;;;;6.94;100.00;101371.31;5030311;28;20041;-51
2023/12/20 02:12:00;;;;;;;6.55;2.45;;;;;;;6.96;100.00;101371.84;5029637;28;20053;-54
2023/12/20 02:14:27;;;;;;;19.38;3.45;;;;;;;6.96;100.00;101353.41;5030698;28;20053;-50
2023/12/20 02:16:54;;;;;;;14.20;2.33;;;;;;;6.97;100.00;101356.94;5031000;28;20045;-52
2023/12/20 02:19:22;;;;;;;8.07;1.88;;;;;;;6.97;100.00;101344.00;5030171;28;20041;-50
2023/12/20 02:21:49;;;;;;;10.48;1.67;;;;;;;6.99;100.00;101347.25;5029613;28;20052;-50
2023/12/20 02:24:17;;;;;;;7.00;2.13;;;;;;;7.03;100.00;101342.78;5033070;28;20044;-48
2023/12/20 02:26:44;;;;;;;7.90;1.75;;;;;;;7.07;100.00;101356.75;5036876;28;20045;-49
2023/12/20 02:29:13;;;;;;;20.02;2.58;;;;;;;7.11;100.00;101350.31;5030309;28;20046;-53
2023/12/20 02:31:40;;;;;;;9.35;2.10;;;;;;;7.16;100.00;101368.66;5030098;28;20061;-49
2023/12/20 02:34:08;;;;;;;10.88;1.58;;;;;;;7.20;100.00;101364.19;5029493;28;20046;-51
2023/12/20 02:36:35;;;;;;;13.77;2.00;;;;;;;7.22;100.00;101367.44;5030094;28;20099;-53
2023/12/20 02:39:04;;;;;;;11.50;2.33;;;;;;;7.25;100.00;101367.63;5029558;28;20672;-51
2023/12/20 02:41:31;;;;;;;14.32;1.95;;;;;;;7.26;100.00;101362.94;5029455;28;20057;-50
2023/12/20 02:43:58;;;;;;;10.98;1.70;;;;;;;7.26;100.00;101351.91;5029789;28;20053;-54
2023/12/20 02:46:26;;;;;;;8.63;1.55;;;;;;;7.25;100.00;101344.78;5024873;28;20041;-54
2023/12/20 02:48:54;;;;;;;10.60;1.98;;;;;;;7.22;100.00;101372.94;5029949;28;20518;-49
2023/12/20 02:51:21;;;;;;;9.18;1.92;;;;;;;7.18;100.00;101367.22;5029663;28;20057;-51
2023/12/20 02:53:49;;;;;;;7.18;1.60;;;;;;;7.17;100.00;101362.03;5024631;28;20052;-49
2023/12/20 02:56:16;;;;;;;9.93;1.42;;;;;;;7.14;100.00;101379.19;5028139;28;20427;-51
2023/12/20 02:58:44;;;;;;;11.45;4.25;;;;;;;7.15;100.00;101383.53;5029292;28;20083;-52
2023/12/20 03:01:11;;;;;;;2.90;1.05;;;;;;;7.17;100.00;101362.88;5106987;22;20046;-51
2023/12/20 03:03:38;;;;;;;10.32;1.17;;;;;;;7.17;100.00;101373.06;5006112;28;20041;-49
2023/12/20 03:06:06;;;;;;;10.30;2.30;;;;;;;7.16;100.00;101357.66;5020502;28;20042;-50
2023/12/20 03:08:33;;;;;;;6.38;1.65;;;;;;;7.12;100.00;101362.94;5006266;28;20045;-51
2023/12/20 03:11:01;;;;;;;4.93;1.63;;;;;;;7.13;100.00;101369.28;5019335;28;20054;-52
2023/12/20 03:13:28;;;;;;;7.70;2.30;;;;;;;7.12;100.00;101362.16;5021980;28;20049;-51
2023/12/20 03:15:55;;;;;;;10.18;1.35;;;;;;;7.12;100.00;101356.66;5018102;28;20053;-47
2023/12/20 03:18:23;;;;;;;7.43;1.60;;;;;;;7.13;100.00;101352.75;5016614;28;20062;-53
2023/12/20 03:20:50;;;;;;;9.23;2.55;;;;;;;7.13;100.00;101358.25;5014046;28;20045;-51
2023/12/20 03:23:18;;;;;;;7.15;1.20;;;;;;;7.13;100.00;101350.81;5012753;28;20584;-54
2023/12/20 03:25:45;;;;;;;9.48;2.33;;;;;;;7.14;100.00;101343.38;5028024;28;20511;-53
2023/12/20 03:28:15;;;;;;;5.85;0.90;;;;;;;7.16;100.00;101346.63;5003379;28;20064;-50
2023/12/20 03:30:43;;;;;;;6.40;1.70;;;;;;;7.18;100.00;101344.38;5024999;28;20399;-49
2023/12/20 03:33:10;;;;;;;12.43;1.45;;;;;;;7.20;100.00;101342.94;5014742;28;20069;-53
2023/12/20 03:35:38;;;;;;;4.57;1.33;;;;;;;7.23;100.00;101336.00;5024548;28;20049;-49
2023/12/20 03:38:05;;;;;;;4.30;1.60;;;;;;;7.26;100.00;101335.38;5024109;28;20053;-49
2023/12/20 03:40:33;;;;;;;15.80;2.38;;;;;;;7.29;100.00;101326.50;5018242;28;20686;-53
2023/12/20 03:43:00;;;;;;;7.50;1.48;;;;;;;7.32;100.00;101334.16;5019817;28;20507;-48
2023/12/20 03:45:28;;;;;;;13.82;2.85;;;;;;;7.35;100.00;101333.56;5024420;28;20054;-50
2023/12/20 03:47:56;;;;;;;13.50;3.05;;;;;;;7.39;100.00;101329.03;5027030;28;20050;-52
2023/12/20 03:50:24;;;;;;;6.03;1.90;;;;;;;7.43;100.00;101335.56;5027535;28;20042;-49
2023/12/20 03:52:51;;;;;;;8.88;1.65;;;;;;;7.46;100.00;101345.16;5027685;28;20045;-51
2023/12/20 03:55:19;;;;;;;9.02;1.48;;;;;;;7.48;100.00;101348.41;5024167;28;20045;-48
2023/12/20 03:57:46;;;;;;;5.15;1.50;;;;;;;7.49;100.00;101334.34;5028594;28;20049;-49
2023/12/20 04:00:14;;;;;;;13.93;2.45;;;;;;;7.50;100.00;101327.69;5027021;28;20061;-49
2023/12/20 04:02:42;;;;;;;8.45;2.17;;;;;;;7.51;100.00;101337.59;5019928;28;20053;-52
2023/12/20 04:05:10;;;;;;;7.78;1.63;;;;;;;7.49;100.00;101328.84;5014116;28;20046;-49
2023/12/20 04:07:38;;;;;;;4.88;1.50;;;;;;;7.52;100.00;101338.41;5016146;28;20519;-54
2023/12/20 04:10:06;;;;;;;7.57;1.48;;;;;;;7.54;100.00;101342.50;5029359;28;20038;-49
2023/12/20 04:12:33;;;;;;;5.63;1.08;;;;;;;7.56;100.00;101345.75;5025482;28;20037;-52
2023/12/20 04:15:01;;;;;;;12.30;1.38;;;;;;;7.58;100.00;101362.78;5023800;28;20049;-54
2023/12/20 04:17:28;;;;;;;5.18;1.40;;;;;;;7.60;100.00;101368.00;5024111;28;20537;-49
2023/12/20 04:19:56;;;;;;;10.80;1.25;;;;;;;7.60;100.00;101374.28;5028384;28;20037;-51
2023/12/20 04:22:23;;;;;;;6.15;1.17;;;;;;;7.61;100.00;101381.44;5026763;28;20080;-50
2023/12/20 04:24:50;;;;;;;11.02;2.10;;;;;;;7.63;100.00;101375.63;5029678;28;20048;-50
2023/12/20 04:27:18;;;;;;;6.93;1.95;;;;;;;7.64;100.00;101380.00;5019466;28;20065;-52
2023/12/20 04:29:45;;;;;;;5.55;1.95;;;;;;;7.64;100.00;101369.81;5015430;28;20053;-49
2023/12/20 04:32:12;;;;;;;3.42;1.33;;;;;;;7.63;100.00;101370.91;5023508;28;20060;-47
2023/12/20 04:34:40;;;;;;;6.78;1.55;;;;;;;7.64;100.00;101361.53;5018790;28;20049;-49
2023/12/20 04:37:07;;;;;;;12.15;2.13;;;;;;;7.65;100.00;101354.09;5020059;28;20059;-49
2023/12/20 04:39:35;;;;;;;10.05;1.25;;;;;;;7.64;100.00;101333.97;5024193;28;20526;-52
2023/12/20 04:42:02;;;;;;;5.70;0.98;;;;;;;7.63;100.00;101324.06;5023937;28;20046;-50
2023/12/20 04:44:30;;;;;;;5.70;1.13;;;;;;;7.63;100.00;101348.88;5026812;28;20052;-49
2023/12/20 04:46:57;;;;;;;6.30;1.13;;;;;;;7.63;100.00;101346.13;4999063;28;20041;-50
2023/12/20 04:49:24;;;;;;;5.90;2.17;;;;;;;7.64;100.00;101342.25;5008046;28;20054;-52
2023/12/20 04:51:52;;;;;;;6.55;1.85;;;;;;;7.64;100.00;101336.75;5025867;28;20049;-53
2023/12/20 04:54:19;;;;;;;7.65;1.75;;;;;;;7.66;100.00;101331.72;5013792;28;20058;-49
2023/12/20 04:56:48;;;;;;;15.68;3.33;;;;;;;7.66;100.00;101339.16;5019638;28;20044;-53
2023/12/20 04:59:15;;;;;;;6.47;1.13;;;;;;;7.67;100.00;101349.09;5017770;28;20092;-52
2023/12/20 05:01:43;;;;;;;6.30;1.30;;;;;;;7.68;100.00;101347.94;5018707;28;20053;-51
2023/12/20 05:04:10;;;;;;;8.07;1.45;;;;;;;7.69;100.00;101341.31;5021118;28;20053;-49
2023/12/20 05:06:37;;;;;;;10.55;1.52;;;;;;;7.70;100.00;101330.00;5014688;28;20081;-51
2023/12/20 05:09:06;;;;;;;4.82;0.77;;;;;;;7.71;100.00;101353.66;5023049;28;20049;-51
2023/12/20 05:11:33;;;;;;;8.43;1.10;;;;;;;7.73;100.00;101343.13;5026020;28;20068;-49
2023/12/20 05:14:01;;;;;;;11.38;2.10;;;;;;;7.75;100.00;101353.84;5021716;28;20048;-50
2023/12/20 05:16:29;;;;;;;5.60;1.08;;;;;;;7.75;100.00;101346.41;5015136;28;20569;-51
2023/12/20 05:18:56;;;;;;;13.05;1.30;;;;;;;7.76;100.00;101341.69;5019891;28;20049;-51
2023/12/20 05:21:24;;;;;;;6.93;1.55;;;;;;;7.75;100.00;101332.63;5009945;28;20054;-52
2023/12/20 05:23:51;;;;;;;10.35;1.38;;;;;;;7.74;100.00;101314.44;5025050;28;20050;-53
2023/12/20 05:26:18;;;;;;;4.82;0.93;;;;;;;7.71;100.00;101323.34;5022688;28;20042;-49
2023/12/20 05:28:45;;;;;;;7.00;0.93;;;;;;;7.72;100.00;101332.44;5020606;28;20045;-49
2023/12/20 05:31:13;;;;;;;5.03;1.02;;;;;;;7.70;100.00;101323.66;5016371;28;20060;-52
2023/12/20 05:33:40;;;;;;;7.18;2.33;;;;;;;7.70;100.00;101332.75;5015520;28;20448;-52
2023/12/20 05:36:11;;;;;;;6.72;1.00;;;;;;;7.69;100.00;101322.84;5020332;28;20053;-51
2023/12/20 05:38:38;;;;;;;9.43;2.05;;;;;;;7.66;100.00;101320.69;5011351;28;20069;-52
2023/12/20 05:41:06;;;;;;;11.70;2.13;;;;;;;7.66;100.00;101322.63;5018399;28;20069;-49
2023/12/20 05:43:33;;;;;;;9.98;1.40;;;;;;;7.64;100.00;101314.69;5019477;28;20041;-49
2023/12/20 05:46:00;;;;;;;8.30;2.45;;;;;;;7.64;100.00;101320.22;5019520;28;20045;-51
2023/12/20 05:48:28;;;;;;;11.48;1.45;;;;;;;7.66;100.00;101322.63;5016447;28;20077;-53
2023/12/20 05:50:55;;;;;;;8.45;1.40;;;;;;;7.67;100.00;101316.00;5020296;28;20057;-53
2023/12/20 05:53:22;;;;;;;9.65;2.20;;;;;;;7.67;100.00;101303.06;5005177;28;20048;-50
2023/12/20 05:55:50;;;;;;;5.30;1.55;;;;;;;7.69;100.00;101295.28;5023511;28;20068;-49
2023/12/20 05:58:17;;;;;;;8.80;1.45;;;;;;;7.71;100.00;101293.00;5013287;28;20048;-53
2023/12/20 06:00:45;;;;;;;8.38;1.25;;;;;;;7.73;100.00;101278.94;5017548;28;20049;-49
2023/12/20 06:03:13;;;;;;;9.88;1.65;;;;;;;7.75;100.00;101268.41;5019784;28;20796;-54
2023/12/20 06:05:40;;;;;;;11.75;1.70;;;;;;;7.75;100.00;101271.16;5021850;28;20049;-51
2023/12/20 06:08:07;;;;;;;16.98;3.42;;;;;;;7.76;100.00;101265.31;5021696;28;20053;-49
2023/12/20 06:10:34;;;;;;;10.10;1.80;;;;;;;7.77;100.00;101261.47;5015621;28;20075;-51
2023/12/20 06:13:04;;;;;;;9.85;1.42;;;;;;;7.79;100.00;101267.47;5019482;28;20056;-49
2023/12/20 06:15:31;;;;;;;7.03;1.70;;;;;;;7.79;100.00;101261.94;5018860;28;20084;-50
2023/12/20 06:17:58;;;;;;;12.52;2.08;;;;;;;7.81;100.00;101275.44;5026240;28;20053;-50
2023/12/20 06:20:26;;;;;;;9.15;1.38;;;;;;;7.82;100.00;101272.34;5026157;28;20052;-51
2023/12/20 06:22:53;;;;;;;8.18;1.95;;;;;;;7.83;100.00;101274.00;5013789;28;20045;-51
2023/12/20 06:25:20;;;;;;;6.38;2.15;;;;;;;7.85;100.00;101276.41;5032763;28;20045;-51
2023/12/20 06:27:48;;;;;;;11.82;1.35;;;;;;;7.86;100.00;101267.03;5024877;28;20511;-52
2023/12/20 06:30:16;;;;;;;17.85;3.97;;;;;;;7.87;100.00;101266.72;5021430;28;20046;-50
2023/12/20 06:32:44;;;;;;;12.98;1.58;;;;;;;7.86;100.00;101254.03;5016368;28;20049;-50
2023/12/20 06:35:11;;;;;;;9.68;1.33;;;;;;;7.87;100.00;101257.63;5025657;28;20049;-49
2023/12/20 06:37:42;;;;;;;13.13;1.95;;;;;;;7.85;100.00;101259.88;5022574;28;20053;-51
2023/12/20 06:40:10;;;;;;;7.68;2.20;;;;;;;7.85;100.00;101259.88;5010504;28;20496;-52
2023/12/20 06:42:44;;;;;;;10.95;1.77;;;;;;;7.84;100.00;101269.25;5018285;28;20056;-51
2023/12/20 06:45:25;;;;;;;22.80;2.55;;;;;;;7.84;100.00;101270.09;5024274;28;20053;-50
2023/12/20 06:47:52;;;;;;;16.40;2.03;;;;;;;7.84;100.00;101281.13;5025870;28;20049;-52
2023/12/20 06:50:20;;;;;;;6.78;1.17;;;;;;;7.84;100.00;101294.91;5027421;28;20045;-51
2023/12/20 06:52:47;;;;;;;5.45;1.42;;;;;;;7.86;100.00;101295.38;5022241;28;20049;-52
2023/12/20 06:55:15;;;;;;;3.65;1.42;;;;;;;7.87;100.00;101291.50;5029105;28;20042;-49
2023/12/20 06:57:42;;;;;;;7.22;1.45;;;;;;;7.88;100.00;101298.66;5027960;28;20050;-51
2023/12/20 07:00:11;;;;;;;6.57;1.45;;;;;;;7.89;100.00;101305.78;5028360;28;20056;-52
2023/12/20 07:02:39;;;;;;;8.95;1.45;;;;;;;7.91;100.00;101292.53;5018185;28;20057;-49
2023/12/20 07:05:06;;;;;;;10.68;2.60;;;;;;;7.92;100.00;101282.28;5017389;28;20495;-48
2023/12/20 07:07:34;;;;;;;10.00;3.70;;;;;;;7.94;100.00;101258.00;5024963;28;20042;-50
2023/12/20 07:10:02;;;;;;;5.75;1.70;;;;;;;7.96;100.00;101277.78;5029573;28;20068;-50
2023/12/20 07:12:30;;;;;;;8.35;1.98;;;;;;;7.97;100.00;101269.19;5020504;28;20038;-52
2023/12/20 07:14:57;;;;;;;9.35;2.55;;;;;;;8.02;100.00;101275.72;5018772;28;20053;-52
2023/12/20 07:17:24;;;;;;;2.65;1.73;;;;;;;8.03;100.00;101289.19;5027364;28;20064;-50
2023/12/20 07:19:52;;;;;;;5.60;1.50;;;;;;;8.04;100.00;101296.34;5020857;28;20045;-53
2023/12/20 07:22:19;;;;;;;3.30;0.93;;;;;;;8.04;100.00;101298.28;5014823;28;20407;-51
2023/12/20 07:24:48;;;;;;;6.85;1.23;;;;;;;8.05;100.00;101280.63;5025397;28;20064;-50
2023/12/20 07:27:15;;;;;;;7.95;1.00;;;;;;;8.06;100.00;101280.28;5025139;28;20057;-51
2023/12/20 07:29:42;;;;;;;4.95;1.17;;;;;;;8.04;100.00;101274.28;5018584;28;20050;-49
2023/12/20 07:32:10;;;;;;;9.13;1.10;;;;;;;8.04;100.00;101276.22;5020871;28;20053;-49
2023/12/20 07:34:37;;;;;;;5.20;1.13;;;;;;;8.06;100.00;101282.22;5023601;28;20060;-52
2023/12/20 07:37:06;;;;;;;6.90;2.25;;;;;;;8.07;100.00;101275.59;5022398;28;20067;-51
2023/12/20 07:39:34;;;;;;;1.95;0.73;;;;;;;8.07;100.00;101268.13;5029532;28;20666;-47
2023/12/20 07:42:01;;;;;;;2.97;0.88;;;;;;;8.07;100.00;101254.34;4997560;28;20042;-50
2023/12/20 07:44:29;;;;;;;2.05;0.73;;;;;;;8.07;100.00;101250.78;5021733;28;20056;-49
2023/12/20 07:46:57;;;;;;;4.82;0.73;;;;;;;8.08;100.00;101246.88;5029157;28;20056;-51
2023/12/20 07:49:25;;;;;;;2.47;1.08;;;;;;;8.07;100.00;101245.25;5029182;28;20407;-49
2023/12/20 07:51:52;;;;;;;6.82;0.95;;;;;;;8.07;100.00;101228.72;5028408;28;20054;-52
2023/12/20 07:54:22;;;;;;;5.45;0.85;;;;;;;8.07;100.00;101235.06;5011564;28;20188;-51
2023/12/20 07:56:49;;;;;;;7.07;1.30;;;;;;;8.09;100.00;101231.97;5028487;28;20050;-51
2023/12/20 07:59:16;;;;;;;8.63;2.05;;;;;;;8.10;100.00;101230.84;5029664;28;20080;-48
2023/12/20 08:01:56;;;;;;;7.13;1.67;;;;;;;8.12;100.00;101203.75;5028195;28;20057;-49
2023/12/20 08:04:24;;;;;;;14.15;2.28;;;;;;;8.13;100.00;101199.88;5027585;28;20076;-52
2023/12/20 08:06:51;;;;;;;7.50;2.20;;;;;;;8.15;100.00;101195.66;5015742;28;20095;-49
2023/12/20 08:09:19;;;;;;;11.20;2.60;;;;;;;8.15;100.00;101236.22;5028965;28;20050;-51
2023/12/20 08:11:47;;;;;;;12.65;2.00;;;;;;;8.17;100.00;101244.97;5028776;28;20507;-50
2023/12/20 08:14:16;;;;;;;8.45;1.77;;;;;;;8.17;100.00;101229.25;5019610;28;20061;-47
2023/12/20 08:16:43;;;;;;;12.68;3.35;;;;;;;8.18;100.00;101214.31;5025738;28;20046;-50
2023/12/20 08:19:10;;;;;;;8.30;2.42;;;;;;;8.19;100.00;101215.94;5016329;28;20041;-50
2023/12/20 08:21:38;;;;;;;8.50;2.15;;;;;;;8.21;100.00;101224.72;5005102;28;20231;-51
2023/12/20 08:24:06;;;;;;;7.68;1.88;;;;;;;8.23;100.00;101210.63;5024816;28;20061;-51
2023/12/20 08:26:33;;;;;;;12.10;2.50;;;;;;;8.26;100.00;101204.47;5034818;28;20049;-53
2023/12/20 08:29:01;;;;;;;13.35;2.63;;;;;;;8.28;100.00;101193.97;5028699;28;20053;-51
2023/12/20 08:31:29;;;;;;;17.70;2.83;;;;;;;8.28;100.00;101210.50;5013929;28;20049;-49
2023/12/20 08:33:56;;;;;;;15.30;3.80;;;;;;;8.30;100.00;101199.97;5018050;28;20042;-49
2023/12/20 08:36:25;;;;;;;9.52;2.22;;;;;;;8.31;100.00;101218.16;5010804;28;20613;-51
2023/12/20 08:38:53;;;;;;;13.25;2.50;;;;;;;8.33;100.00;101200.16;5022713;28;20051;-50
2023/12/20 08:41:21;;;;;;;14.95;3.08;;;;;;;8.34;100.00;101209.25;5018658;28;20038;-47
2023/12/20 08:43:48;;;;;;;13.23;2.95;;;;;;;8.35;100.00;101208.91;5026287;28;20121;-50
2023/12/20 08:46:16;;;;;;;17.23;3.17;;;;;;;8.37;100.00;101223.19;5025838;28;20053;-50
2023/12/20 08:48:43;;;;;;;9.50;2.25;;;;;;;8.37;100.00;101217.69;5006480;28;20411;-47
2023/12/20 08:51:12;;;;;;;16.65;2.90;;;;;;;8.38;100.00;101216.56;5011010;28;20061;-51
2023/12/20 08:53:40;;;;;;;10.75;2.15;;;;;;;8.38;100.00;101224.84;5025028;28;20388;-48
2023/12/20 08:56:07;;;;;;;12.68;2.90;;;;;;;8.39;100.00;101211.84;5019423;28;20046;-48
2023/12/20 08:58:35;;;;;;;17.63;2.28;;;;;;;8.40;100.00;101202.44;5013843;28;20057;-50
2023/12/20 09:01:03;;;;;;;16.27;4.32;;;;;;;8.42;100.00;101202.91;5024363;28;20059;-48
2023/12/20 09:03:31;;;;;;;20.10;3.28;;;;;;;8.43;100.00;101204.56;5022458;28;20054;-49
2023/12/20 09:05:59;;;;;;;12.15;3.28;;;;;;;8.44;100.00;101206.19;5025576;28;20076;-47
2023/12/20 09:08:27;;;;;;;12.43;2.58;;;;;;;8.45;100.00;101196.75;5002290;28;20130;-49
2023/12/20 09:10:55;;;;;;;14.15;2.63;;;;;;;8.46;100.00;101187.38;5024638;28;20058;-49
2023/12/20 09:13:27;;;;;;;10.73;2.65;;;;;;;8.45;100.00;101174.69;5005524;28;20053;-49
2023/12/20 09:15:56;;;;;;;11.25;2.70;;;;;;;8.45;100.00;101174.69;5016710;28;20062;-53
2023/12/20 09:18:24;;;;;;;17.70;2.85;;;;;;;8.45;100.00;101174.69;5018695;28;20041;-49
2023/12/20 09:20:51;;;;;;;14.90;2.60;;;;;;;8.45;100.00;101174.69;5017943;28;20057;-52
2023/12/20 09:23:19;;;;;;;13.32;2.88;;;;;;;8.45;100.00;101142.41;5024072;28;20057;-50
2023/12/20 09:25:46;;;;;;;12.52;3.40;;;;;;;8.44;100.00;101131.69;5026399;28;20517;-48
2023/12/20 09:28:14;;;;;;;14.20;3.45;;;;;;;8.47;100.00;101151.16;5020882;28;20121;-51
2023/12/20 09:30:42;;;;;;;12.77;3.70;;;;;;;8.49;100.00;101145.34;5020059;28;20049;-47
2023/12/20 09:33:09;;;;;;;14.15;2.90;;;;;;;8.50;100.00;101131.22;5018744;28;20069;-49
2023/12/20 09:35:37;;;;;;;17.00;3.53;;;;;;;8.52;100.00;101151.00;5018340;28;20538;-52
2023/12/20 09:38:04;;;;;;;16.15;3.65;;;;;;;8.54;100.00;101128.63;5014950;28;20046;-48
2023/12/20 09:40:33;;;;;;;12.30;3.30;;;;;;;8.56;100.00;101121.66;5022834;28;20052;-49
2023/12/20 09:43:05;;;;;;;15.60;3.38;;;;;;;8.58;100.00;101110.28;5011994;28;20056;-45
2023/12/20 09:45:32;;;;;;;15.80;3.50;;;;;;;8.61;100.00;101097.78;5021950;28;20049;-51
2023/12/20 09:48:00;;;;;;;24.20;4.88;;;;;;;8.64;100.00;101105.41;5026864;28;20045;-51
2023/12/20 09:50:32;;;;;;;15.75;3.15;;;;;;;8.66;100.00;101092.91;5026088;28;20037;-50
2023/12/20 09:53:02;;;;;;;16.48;2.85;;;;;;;8.66;100.00;101070.81;5026231;28;20061;-48
2023/12/20 09:55:32;;;;;;;19.38;3.20;;;;;;;8.69;100.00;101092.25;5017734;28;20046;-51
2023/12/20 09:58:00;;;;;;;21.67;4.05;;;;;;;8.73;100.00;101075.88;5012509;28;20049;-49
2023/12/20 10:00:27;;;;;;;17.27;4.47;;;;;;;8.75;100.00;101079.13;5019487;28;20050;-52
2023/12/20 10:03:00;;;;;;;17.00;4.25;;;;;;;8.78;100.00;101087.56;5026617;28;20049;-50
2023/12/20 10:05:31;;;;;;;17.13;2.55;;;;;;;8.80;100.00;101070.66;5014679;28;20527;-48
2023/12/20 10:08:01;;;;;;;20.73;4.55;;;;;;;8.81;100.00;101062.09;5022763;28;20399;-49
2023/12/20 10:10:29;;;;;;;18.10;5.20;;;;;;;8.82;100.00;101055.41;5011965;28;20053;-48
2023/12/20 10:13:12;;;;;;;20.95;4.50;;;;;;;8.82;100.00;101057.34;5022995;28;20515;-48
2023/12/20 10:15:40;;;;;;;17.83;3.05;;;;;;;8.81;100.00;101064.84;5019409;28;20045;-46
2023/12/20 10:18:10;;;;;;;24.75;4.25;;;;;;;8.81;100.00;101062.09;5014908;28;20056;-50
2023/12/20 10:20:40;;;;;;;16.58;3.08;;;;;;;8.81;100.00;101067.59;5023842;28;20564;-50
2023/12/20 10:23:08;;;;;;;12.00;3.38;;;;;;;8.80;100.00;101088.06;5029872;28;20053;-49
2023/12/20 10:25:35;;;;;;;17.23;3.60;;;;;;;8.80;100.00;101088.06;5006936;28;20046;-49
2023/12/20 10:28:14;;;;;;;18.15;4.05;;;;;;;8.80;100.00;101085.28;5024069;28;20508;-45
2023/12/20 10:30:42;;;;;;;18.30;3.45;;;;;;;8.81;100.00;101092.44;5022968;28;20061;-51
2023/12/20 10:33:10;;;;;;;19.23;3.40;;;;;;;8.82;100.00;101077.50;5018334;28;20046;-50
2023/12/20 10:35:40;;;;;;;21.67;4.22;;;;;;;8.83;100.00;101065.31;5025032;28;20045;-47
2023/12/20 10:38:13;;;;;;;16.42;4.30;;;;;;;8.85;100.00;101067.75;5022267;28;20045;-48
2023/12/20 10:40:44;;;;;;;15.63;3.92;;;;;;;8.86;100.00;101085.94;5026420;28;20403;-48
2023/12/20 10:43:12;;;;;;;23.75;3.97;;;;;;;8.85;100.00;101084.31;5023546;28;20057;-45
2023/12/20 10:45:42;;;;;;;16.40;3.45;;;;;;;8.86;100.00;101100.56;5023429;28;20041;-47
2023/12/20 10:48:11;;;;;;;17.75;4.38;;;;;;;8.86;100.00;101086.75;5020303;28;20052;-51
2023/12/20 10:50:41;;;;;;;20.92;5.18;;;;;;;8.85;100.00;101079.59;5015651;28;20507;-45
2023/12/20 10:53:08;;;;;;;13.15;4.32;;;;;;;8.84;100.00;101089.00;5020967;28;20042;-45
2023/12/20 10:55:35;;;;;;;15.43;3.83;;;;;;;8.83;100.00;101092.94;5021099;28;20054;-47
2023/12/20 10:58:08;;;;;;;32.63;6.47;;;;;;;8.83;100.00;101086.59;5020605;28;20057;-49
2023/12/20 11:00:38;;;;;;;;;;;;;;;8.82;100.00;101096.81;5023353;28;20398;-49
2023/12/20 11:03:10;;;;;;;23.05;5.78;;;;;;;8.82;100.00;101088.53;5025243;28;20014;-48
2023/12/20 11:05:55;;;;;;;20.05;3.78;;;;;;;8.81;100.00;101086.09;5021374;28;20777;-47
2023/12/20 11:08:39;;;;;;;24.48;4.53;;;;;;;8.82;100.00;101087.72;5027361;28;20061;-52
2023/12/20 11:11:14;;;;;;;33.83;5.88;;;;;;;8.83;100.00;101086.59;5022114;28;20451;-51
2023/12/20 11:13:55;;;;;;;23.38;4.53;;;;;;;8.83;100.00;101087.41;5019637;28;20057;-47
2023/12/20 11:16:22;;;;;;;20.67;4.80;;;;;;;8.84;100.00;101077.97;5025239;28;20049;-48
2023/12/20 11:18:52;;;;;;;18.83;4.43;;;;;;;8.86;100.00;101064.69;5018201;28;20053;-51
2023/12/20 11:21:20;;;;;;;23.10;6.35;;;;;;;8.86;100.00;101053.63;5012774;28;20619;-46
2023/12/20 11:23:48;;;;;;;25.35;5.03;;;;;;;8.87;100.00;101060.75;5016226;28;20037;-56
2023/12/20 11:26:17;;;;;;;30.88;5.80;;;;;;;8.89;100.00;101052.97;5029002;28;20046;-46